Time;durP1;ratioP1;P1;durP2;ratioP2;P2;SDS_P1;SDS_P2;PMS_P1;PMS_P2;Temp;Humidity;BMP_temperature;BMP_pressure;BME280_temperature;BME280_humidity;BME280_pressure;Samples;Min_cycle;Max_cycle;Signal;HPM_P1;HPM_P2
2023/11/13 00:01:53;;;;;;;;;;;;;;;;;;4940248;28;19926;-76
2023/11/13 00:04:20;;;;;;;;;;;;;;;;;;4970002;28;19930;-76
2023/11/13 00:06:46;;;;;;;;;;;;;;;;;;4962396;28;19932;-76
2023/11/13 00:09:13;;;;;;;;;;;;;;;;;;4960996;28;19930;-74
2023/11/13 00:11:39;;;;;;;;;;;;;;;;;;4960764;28;19926;-78
2023/11/13 00:14:06;;;;;;;;;;;;;;;;;;4946497;28;19927;-76
2023/11/13 00:16:32;;;;;;;;;;;;;;;;;;4964965;28;19927;-74
2023/11/13 00:18:59;;;;;;;;;;;;;;;;;;4958594;28;19933;-74
2023/11/13 00:21:25;;;;;;;;;;;;;;;;;;4952231;28;19984;-76
2023/11/13 00:23:51;;;;;;;;;;;;;;;;;;4954746;28;19934;-75
2023/11/13 00:26:18;;;;;;;;;;;;;;;;;;4962866;28;19933;-72
2023/11/13 00:28:50;;;;;;;;;;;;;;;;;;4953806;28;20365;-74
2023/11/13 00:31:17;;;;;;;;;;;;;;;;;;4961014;28;20462;-76
2023/11/13 00:33:43;;;;;;;;;;;;;;;;;;4951986;28;20021;-74
2023/11/13 00:36:10;;;;;;;;;;;;;;;;;;4942161;28;20029;-75
2023/11/13 00:38:36;;;;;;;;;;;;;;;;;;4953112;28;19969;-77
2023/11/13 00:41:03;;;;;;;;;;;;;;;;;;4964811;28;19938;-76
2023/11/13 00:43:29;;;;;;;;;;;;;;;;;;4955449;28;19926;-76
2023/11/13 00:45:55;;;;;;;;;;;;;;;;;;4956999;28;19936;-75
2023/11/13 00:48:22;;;;;;;;;;;;;;;;;;4941852;28;19968;-76
2023/11/13 00:50:48;;;;;;;;;;;;;;;;;;4944865;28;19927;-74
2023/11/13 00:53:15;;;;;;;;;;;;;;;;;;4956378;28;20020;-76
2023/11/13 00:55:41;;;;;;;;;;;;;;;;;;4936053;28;19978;-76
2023/11/13 00:58:08;;;;;;;;;;;;;;;;;;4946711;28;19934;-75
2023/11/13 01:00:34;;;;;;;;;;;;;;;;;;4964663;28;19926;-76
2023/11/13 01:03:01;;;;;;;;;;;;;;;;;;4963841;28;19934;-76
2023/11/13 01:05:27;;;;;;;;;;;;;;;;;;4962200;28;19953;-77
2023/11/13 01:07:55;;;;;;;;;;;;;;;;;;4957341;28;19933;-75
2023/11/13 01:10:21;;;;;;;;;;;;;;;;;;4945720;28;20422;-75
2023/11/13 01:12:48;;;;;;;;;;;;;;;;;;4958589;28;20383;-75
2023/11/13 01:15:15;;;;;;;;;;;;;;;;;;4964157;28;20339;-73
2023/11/13 01:17:41;;;;;;;;;;;;;;;;;;4956342;28;19965;-76
2023/11/13 01:20:08;;;;;;;;;;;;;;;;;;4961801;28;19934;-75
2023/11/13 01:22:35;;;;;;;;;;;;;;;;;;4958715;28;19926;-73
2023/11/13 01:25:01;;;;;;;;;;;;;;;;;;4965592;28;19969;-75
2023/11/13 01:27:28;;;;;;;;;;;;;;;;;;4941661;28;19926;-76
2023/11/13 01:29:54;;;;;;;;;;;;;;;;;;4962963;28;19933;-74
2023/11/13 01:32:20;;;;;;;;;;;;;;;;;;4944066;28;19934;-74
2023/11/13 01:34:47;;;;;;;;;;;;;;;;;;4959629;28;20302;-74
2023/11/13 01:37:14;;;;;;;;;;;;;;;;;;4961087;28;19934;-77
2023/11/13 01:39:41;;;;;;;;;;;;;;;;;;4960525;28;19934;-74
2023/11/13 01:42:08;;;;;;;;;;;;;;;;;;4945927;28;19977;-77
2023/11/13 01:44:34;;;;;;;;;;;;;;;;;;4958727;28;19930;-75
2023/11/13 01:47:00;;;;;;;;;;;;;;;;;;4946530;28;20405;-76
2023/11/13 01:49:27;;;;;;;;;;;;;;;;;;4944432;28;19931;-76
2023/11/13 01:51:54;;;;;;;;;;;;;;;;;;4958716;28;19957;-78
2023/11/13 01:54:21;;;;;;;;;;;;;;;;;;4957339;28;20414;-77
2023/11/13 01:56:47;;;;;;;;;;;;;;;;;;4934528;28;19926;-74
2023/11/13 01:59:14;;;;;;;;;;;;;;;;;;4960336;28;19930;-76
2023/11/13 02:01:40;;;;;;;;;;;;;;;;;;4946561;28;19989;-75
2023/11/13 02:04:07;;;;;;;;;;;;;;;;;;4953205;28;20369;-76
2023/11/13 02:06:33;;;;;;;;;;;;;;;;;;4963705;28;19927;-75
2023/11/13 02:09:00;;;;;;;;;;;;;;;;;;4972537;28;19958;-74
2023/11/13 02:11:26;;;;;;;;;;;;;;;;;;4965536;28;19932;-77
2023/11/13 02:13:52;;;;;;;;;;;;;;;;;;4958570;28;20392;-75
2023/11/13 02:16:19;;;;;;;;;;;;;;;;;;4960886;28;20451;-75
2023/11/13 02:18:45;;;;;;;;;;;;;;;;;;4966854;28;19934;-75
2023/11/13 02:21:12;;;;;;;;;;;;;;;;;;4944858;28;19931;-77
2023/11/13 02:23:38;;;;;;;;;;;;;;;;;;4950470;28;19936;-75
2023/11/13 02:26:06;;;;;;;;;;;;;;;;;;4940260;28;19971;-74
2023/11/13 02:28:32;;;;;;;;;;;;;;;;;;4965079;28;20275;-75
2023/11/13 02:30:59;;;;;;;;;;;;;;;;;;4961675;28;19999;-76
2023/11/13 02:33:25;;;;;;;;;;;;;;;;;;4963289;28;19933;-78
2023/11/13 02:35:52;;;;;;;;;;;;;;;;;;4964121;28;19926;-76
2023/11/13 02:38:18;;;;;;;;;;;;;;;;;;4963820;28;19927;-75
2023/11/13 02:40:44;;;;;;;;;;;;;;;;;;4951831;28;19926;-75
2023/11/13 02:43:11;;;;;;;;;;;;;;;;;;4962266;28;19970;-76
2023/11/13 02:45:37;;;;;;;;;;;;;;;;;;4968082;28;19926;-75
2023/11/13 02:48:04;;;;;;;;;;;;;;;;;;4959018;28;19989;-77
2023/11/13 02:50:31;;;;;;;;;;;;;;;;;;4959053;28;20269;-76
2023/11/13 02:53:00;;;;;;;;;;;;;;;;;;4950818;28;20233;-76
2023/11/13 02:55:26;;;;;;;;;;;;;;;;;;4963632;28;20414;-76
2023/11/13 02:57:54;;;;;;;;;;;;;;;;;;4969391;28;19937;-75
2023/11/13 03:00:20;;;;;;;;;;;;;;;;;;4964458;28;19930;-77
2023/11/13 03:02:46;;;;;;;;;;;;;;;;;;4948523;28;19933;-77
2023/11/13 03:05:14;;;;;;;;;;;;;;;;;;4964965;28;19930;-75
2023/11/13 03:07:41;;;;;;;;;;;;;;;;;;4951913;28;19930;-75
2023/11/13 03:10:07;;;;;;;;;;;;;;;;;;4965754;28;20430;-76
2023/11/13 03:12:33;;;;;;;;;;;;;;;;;;4957152;28;19934;-74
2023/11/13 03:15:00;;;;;;;;;;;;;;;;;;4944971;28;19964;-74
2023/11/13 03:17:27;;;;;;;;;;;;;;;;;;4942452;29;19970;-77
2023/11/13 03:19:54;;;;;;;;;;;;;;;;;;4968603;28;19958;-76
2023/11/13 03:22:20;;;;;;;;;;;;;;;;;;4959602;28;19977;-76
2023/11/13 03:24:47;;;;;;;;;;;;;;;;;;4957194;28;19949;-75
2023/11/13 03:27:13;;;;;;;;;;;;;;;;;;4959398;28;19935;-77
2023/11/13 03:29:40;;;;;;;;;;;;;;;;;;4966790;28;19934;-74
2023/11/13 03:32:06;;;;;;;;;;;;;;;;;;4955376;28;19965;-76
2023/11/13 03:34:33;;;;;;;;;;;;;;;;;;4959651;28;19926;-76
2023/11/13 03:36:59;;;;;;;;;;;;;;;;;;4960057;28;20423;-76
2023/11/13 03:39:26;;;;;;;;;;;;;;;;;;4958490;28;19930;-76
2023/11/13 03:41:52;;;;;;;;;;;;;;;;;;4956136;28;19926;-77
2023/11/13 03:44:19;;;;;;;;;;;;;;;;;;4959637;28;19990;-75
2023/11/13 03:46:46;;;;;;;;;;;;;;;;;;4965631;28;20298;-77
2023/11/13 03:49:12;;;;;;;;;;;;;;;;;;4937714;28;20288;-76
2023/11/13 03:51:38;;;;;;;;;;;;;;;;;;4958147;28;19927;-77
2023/11/13 03:54:05;;;;;;;;;;;;;;;;;;4969477;28;20359;-77
2023/11/13 03:56:31;;;;;;;;;;;;;;;;;;4962529;28;19927;-75
2023/11/13 03:58:57;;;;;;;;;;;;;;;;;;4957700;28;20025;-76
2023/11/13 04:01:24;;;;;;;;;;;;;;;;;;4955484;28;19931;-77
2023/11/13 04:03:50;;;;;;;;;;;;;;;;;;4957902;28;20383;-78
2023/11/13 04:06:17;;;;;;;;;;;;;;;;;;4961140;28;19973;-77
2023/11/13 04:08:43;;;;;;;;;;;;;;;;;;4954933;28;20379;-77
2023/11/13 04:11:10;;;;;;;;;;;;;;;;;;4944981;28;19957;-77
2023/11/13 04:13:38;;;;;;;;;;;;;;;;;;4946643;28;19930;-77
2023/11/13 04:16:07;;;;;;;;;;;;;;;;;;4952766;28;19926;-79
2023/11/13 04:18:33;;;;;;;;;;;;;;;;;;4963691;28;19930;-79
2023/11/13 04:21:00;;;;;;;;;;;;;;;;;;4935768;28;19933;-80
2023/11/13 04:23:26;;;;;;;;;;;;;;;;;;4939457;28;19927;-80
2023/11/13 04:25:53;;;;;;;;;;;;;;;;;;4965376;28;19957;-78
2023/11/13 04:28:19;;;;;;;;;;;;;;;;;;4945770;28;19934;-78
2023/11/13 04:30:46;;;;;;;;;;;;;;;;;;4942843;28;19927;-78
2023/11/13 04:33:12;;;;;;;;;;;;;;;;;;4952595;28;19958;-78
2023/11/13 04:35:39;;;;;;;;;;;;;;;;;;4960312;28;19926;-80
2023/11/13 04:38:06;;;;;;;;;;;;;;;;;;4957175;28;20029;-79
2023/11/13 04:40:33;;;;;;;;;;;;;;;;;;4961817;28;20025;-78
2023/11/13 04:43:01;;;;;;;;;;;;;;;;;;4945668;28;19993;-78
2023/11/13 04:45:30;;;;;;;;;;;;;;;;;;4962333;28;20445;-78
2023/11/13 04:47:56;;;;;;;;;;;;;;;;;;4961329;28;19927;-78
2023/11/13 04:50:24;;;;;;;;;;;;;;;;;;4941361;28;19958;-79
2023/11/13 04:52:50;;;;;;;;;;;;;;;;;;4955970;28;19977;-78
2023/11/13 04:55:16;;;;;;;;;;;;;;;;;;4939550;28;20384;-79
2023/11/13 04:57:43;;;;;;;;;;;;;;;;;;4962025;28;19930;-78
2023/11/13 05:00:12;;;;;;;;;;;;;;;;;;4952995;28;19973;-78
2023/11/13 05:02:41;;;;;;;;;;;;;;;;;;4945360;28;19962;-78
2023/11/13 05:05:09;;;;;;;;;;;;;;;;;;4963264;28;19933;-77
2023/11/13 05:07:35;;;;;;;;;;;;;;;;;;4953238;28;19973;-78
2023/11/13 05:10:01;;;;;;;;;;;;;;;;;;4955277;28;19941;-76
2023/11/13 05:12:28;;;;;;;;;;;;;;;;;;4957460;28;19937;-77
2023/11/13 05:14:54;;;;;;;;;;;;;;;;;;4941614;28;20017;-78
2023/11/13 05:17:21;;;;;;;;;;;;;;;;;;4957941;28;19926;-79
2023/11/13 05:19:48;;;;;;;;;;;;;;;;;;4965845;28;20300;-79
2023/11/13 05:22:14;;;;;;;;;;;;;;;;;;4938710;28;19934;-78
2023/11/13 05:24:41;;;;;;;;;;;;;;;;;;4957954;28;20371;-79
2023/11/13 05:27:07;;;;;;;;;;;;;;;;;;4954467;28;19930;-77
2023/11/13 05:29:34;;;;;;;;;;;;;;;;;;4961088;28;20064;-78
2023/11/13 05:32:00;;;;;;;;;;;;;;;;;;4945612;28;19976;-79
2023/11/13 05:34:26;;;;;;;;;;;;;;;;;;4942537;28;19930;-78
2023/11/13 05:36:53;;;;;;;;;;;;;;;;;;4964287;28;19926;-77
2023/11/13 05:39:21;;;;;;;;;;;;;;;;;;4959923;28;19930;-78
2023/11/13 05:41:47;;;;;;;;;;;;;;;;;;4959701;28;20385;-76
2023/11/13 05:44:14;;;;;;;;;;;;;;;;;;4957852;28;19931;-78
2023/11/13 05:46:40;;;;;;;;;;;;;;;;;;4959785;28;19989;-80
2023/11/13 05:49:07;;;;;;;;;;;;;;;;;;4958918;28;20001;-78
2023/11/13 05:51:33;;;;;;;;;;;;;;;;;;4948809;28;20347;-79
2023/11/13 05:54:00;;;;;;;;;;;;;;;;;;4960486;28;19931;-80
2023/11/13 05:56:26;;;;;;;;;;;;;;;;;;4949355;28;19926;-77
2023/11/13 05:58:52;;;;;;;;;;;;;;;;;;4957120;28;19931;-79
2023/11/13 06:01:19;;;;;;;;;;;;;;;;;;4945434;28;19961;-78
2023/11/13 06:03:46;;;;;;;;;;;;;;;;;;4960005;28;20310;-77
2023/11/13 06:06:13;;;;;;;;;;;;;;;;;;4936650;28;20030;-76
2023/11/13 06:08:41;;;;;;;;;;;;;;;;;;4945894;29;20013;-78
2023/11/13 06:11:08;;;;;;;;;;;;;;;;;;4965186;28;19927;-78
2023/11/13 06:13:35;;;;;;;;;;;;;;;;;;4947567;28;20278;-80
2023/11/13 06:16:02;;;;;;;;;;;;;;;;;;4962304;28;20329;-80
2023/11/13 06:18:29;;;;;;;;;;;;;;;;;;4959839;28;19935;-78
2023/11/13 06:20:55;;;;;;;;;;;;;;;;;;4944028;28;19927;-78
2023/11/13 06:23:23;;;;;;;;;;;;;;;;;;4955474;28;19930;-78
2023/11/13 06:25:53;;;;;;;;;;;;;;;;;;4963445;28;20392;-78
2023/11/13 06:28:19;;;;;;;;;;;;;;;;;;4936746;28;20022;-78
2023/11/13 06:30:46;;;;;;;;;;;;;;;;;;4957876;28;20795;-79
2023/11/13 06:33:12;;;;;;;;;;;;;;;;;;4934946;28;19933;-79
2023/11/13 06:35:39;;;;;;;;;;;;;;;;;;4955495;28;19926;-79
2023/11/13 06:38:07;;;;;;;;;;;;;;;;;;4943815;28;19926;-79
2023/11/13 06:40:33;;;;;;;;;;;;;;;;;;4952435;28;19927;-77
2023/11/13 06:43:00;;;;;;;;;;;;;;;;;;4950023;28;19927;-79
2023/11/13 06:45:28;;;;;;;;;;;;;;;;;;4940501;29;19930;-77
2023/11/13 06:47:54;;;;;;;;;;;;;;;;;;4954489;28;19926;-79
2023/11/13 06:50:21;;;;;;;;;;;;;;;;;;4957616;28;19931;-78
2023/11/13 06:52:47;;;;;;;;;;;;;;;;;;4945516;28;19934;-76
2023/11/13 06:55:13;;;;;;;;;;;;;;;;;;4958584;28;19926;-80
2023/11/13 06:57:40;;;;;;;;;;;;;;;;;;4966658;28;19926;-79
2023/11/13 07:00:08;;;;;;;;;;;;;;;;;;4954089;28;20021;-79
2023/11/13 07:02:35;;;;;;;;;;;;;;;;;;4947657;28;19926;-79
2023/11/13 07:05:02;;;;;;;;;;;;;;;;;;4960385;28;21081;-78
2023/11/13 07:07:30;;;;;;;;;;;;;;;;;;4963807;28;19946;-78
2023/11/13 07:09:57;;;;;;;;;;;;;;;;;;4944837;28;19926;-79
2023/11/13 07:12:24;;;;;;;;;;;;;;;;;;4958665;28;19961;-78
2023/11/13 07:14:52;;;;;;;;;;;;;;;;;;4957397;28;20340;-80
2023/11/13 07:17:21;;;;;;;;;;;;;;;;;;4955703;28;19965;-81
2023/11/13 07:19:47;;;;;;;;;;;;;;;;;;4959823;28;20418;-80
2023/11/13 07:22:14;;;;;;;;;;;;;;;;;;4961594;28;20407;-81
2023/11/13 07:24:40;;;;;;;;;;;;;;;;;;4948684;28;20340;-81
2023/11/13 07:27:07;;;;;;;;;;;;;;;;;;4957768;28;20439;-79
2023/11/13 07:29:35;;;;;;;;;;;;;;;;;;4961796;28;19932;-80
2023/11/13 07:32:01;;;;;;;;;;;;;;;;;;4965333;28;19926;-82
2023/11/13 07:34:28;;;;;;;;;;;;;;;;;;4951730;28;20022;-79
2023/11/13 07:36:54;;;;;;;;;;;;;;;;;;4944319;28;20414;-82
2023/11/13 07:39:25;;;;;;;;;;;;;;;;;;4961516;28;19926;-79
2023/11/13 07:41:52;;;;;;;;;;;;;;;;;;4960085;28;19936;-78
2023/11/13 07:44:18;;;;;;;;;;;;;;;;;;4954577;28;19966;-81
2023/11/13 07:46:45;;;;;;;;;;;;;;;;;;4951163;28;19927;-81
2023/11/13 07:49:12;;;;;;;;;;;;;;;;;;4957973;28;20033;-79
2023/11/13 07:51:38;;;;;;;;;;;;;;;;;;4963056;28;19926;-79
2023/11/13 07:54:05;;;;;;;;;;;;;;;;;;4957609;28;20351;-79
2023/11/13 07:56:32;;;;;;;;;;;;;;;;;;4958984;28;20420;-79
2023/11/13 07:59:05;;;;;;;;;;;;;;;;;;4957854;28;19938;-79
2023/11/13 08:01:31;;;;;;;;;;;;;;;;;;4959468;28;20025;-78
2023/11/13 08:03:58;;;;;;;;;;;;;;;;;;4949620;28;19926;-79
2023/11/13 08:06:24;;;;;;;;;;;;;;;;;;4956080;28;20418;-80
2023/11/13 08:08:51;;;;;;;;;;;;;;;;;;4954927;28;20033;-80
2023/11/13 08:11:18;;;;;;;;;;;;;;;;;;4949162;28;19930;-79
2023/11/13 08:13:45;;;;;;;;;;;;;;;;;;4957478;28;19993;-81
2023/11/13 08:16:11;;;;;;;;;;;;;;;;;;4956682;28;20383;-81
2023/11/13 08:18:39;;;;;;;;;;;;;;;;;;4960493;28;20026;-80
2023/11/13 08:21:06;;;;;;;;;;;;;;;;;;4957748;28;19926;-77
2023/11/13 08:23:32;;;;;;;;;;;;;;;;;;4959307;28;20142;-78
2023/11/13 08:26:00;;;;;;;;;;;;;;;;;;4961736;28;20022;-79
2023/11/13 08:28:26;;;;;;;;;;;;;;;;;;4958074;28;19926;-79
2023/11/13 08:30:53;;;;;;;;;;;;;;;;;;4968107;28;19937;-80
2023/11/13 08:33:19;;;;;;;;;;;;;;;;;;4955919;28;20383;-81
2023/11/13 08:35:46;;;;;;;;;;;;;;;;;;4964273;28;19926;-80
2023/11/13 08:38:12;;;;;;;;;;;;;;;;;;4940957;28;19996;-79
2023/11/13 08:40:38;;;;;;;;;;;;;;;;;;4962583;28;20057;-78
2023/11/13 08:43:10;;;;;;;;;;;;;;;;;;4960128;28;19926;-82
2023/11/13 08:45:37;;;;;;;;;;;;;;;;;;4959715;28;19931;-80
2023/11/13 08:48:12;;;;;;;;;;;;;;;;;;4956531;28;19985;-80
2023/11/13 08:50:38;;;;;;;;;;;;;;;;;;4945611;29;19937;-79
2023/11/13 08:53:05;;;;;;;;;;;;;;;;;;4961578;28;20038;-78
2023/11/13 08:55:32;;;;;;;;;;;;;;;;;;4934525;28;20025;-79
2023/11/13 08:57:58;;;;;;;;;;;;;;;;;;4955994;28;19937;-82
2023/11/13 09:00:28;;;;;;;;;;;;;;;;;;4933376;29;19930;-79
2023/11/13 09:02:56;;;;;;;;;;;;;;;;;;4955501;28;20406;-78
2023/11/13 09:05:26;;;;;;;;;;;;;;;;;;4937417;28;20332;-78
2023/11/13 09:07:53;;;;;;;;;;;;;;;;;;4943639;28;20013;-78
2023/11/13 09:10:21;;;;;;;;;;;;;;;;;;4955877;28;20017;-79
2023/11/13 09:12:48;;;;;;;;;;;;;;;;;;4959120;28;20308;-79
2023/11/13 09:15:17;;;;;;;;;;;;;;;;;;4954790;28;19937;-81
2023/11/13 09:17:45;;;;;;;;;;;;;;;;;;4952193;28;20321;-79
2023/11/13 09:20:15;;;;;;;;;;;;;;;;;;4948793;28;19930;-78
2023/11/13 09:22:41;;;;;;;;;;;;;;;;;;4953328;28;20024;-78
2023/11/13 09:25:07;;;;;;;;;;;;;;;;;;4956624;28;20291;-78
2023/11/13 09:27:34;;;;;;;;;;;;;;;;;;4966205;28;19933;-79
2023/11/13 09:30:00;;;;;;;;;;;;;;;;;;4957348;28;19926;-80
2023/11/13 09:32:31;;;;;;;;;;;;;;;;;;4949734;28;19989;-79
2023/11/13 09:34:59;;;;;;;;;;;;;;;;;;4954975;28;20042;-81
2023/11/13 09:37:25;;;;;;;;;;;;;;;;;;4951949;28;20391;-78
2023/11/13 09:39:52;;;;;;;;;;;;;;;;;;4966417;28;19937;-79
2023/11/13 09:42:18;;;;;;;;;;;;;;;;;;4954371;28;20025;-78
2023/11/13 09:44:45;;;;;;;;;;;;;;;;;;4946079;28;19931;-79
2023/11/13 09:47:20;;;;;;;;;;;;;;;;;;4954794;28;20431;-78
2023/11/13 09:49:47;;;;;;;;;;;;;;;;;;4961805;28;20014;-78
2023/11/13 09:52:13;;;;;;;;;;;;;;;;;;4964645;28;19930;-77
2023/11/13 09:54:40;;;;;;;;;;;;;;;;;;4953977;28;19927;-81
2023/11/13 09:57:09;;;;;;;;;;;;;;;;;;4960330;28;19936;-78
2023/11/13 09:59:35;;;;;;;;;;;;;;;;;;4963071;28;19926;-78
2023/11/13 10:02:08;;;;;;;;;;;;;;;;;;4964285;28;19930;-78
2023/11/13 10:04:34;;;;;;;;;;;;;;;;;;4942618;28;19927;-76
2023/11/13 10:07:02;;;;;;;;;;;;;;;;;;4953089;28;19930;-75
2023/11/13 10:09:30;;;;;;;;;;;;;;;;;;4953368;28;20357;-78
2023/11/13 10:11:56;;;;;;;;;;;;;;;;;;4941477;28;20025;-79
2023/11/13 10:14:24;;;;;;;;;;;;;;;;;;4954086;28;19935;-78
2023/11/13 10:16:51;;;;;;;;;;;;;;;;;;4959517;28;20021;-80
2023/11/13 10:19:17;;;;;;;;;;;;;;;;;;4957524;28;19933;-77
2023/11/13 10:21:44;;;;;;;;;;;;;;;;;;4922402;28;19930;-79
2023/11/13 10:24:10;;;;;;;;;;;;;;;;;;4937916;28;20323;-76
2023/11/13 10:26:37;;;;;;;;;;;;;;;;;;4949780;28;20013;-78
2023/11/13 10:29:03;;;;;;;;;;;;;;;;;;4958282;28;19938;-77
2023/11/13 10:31:30;;;;;;;;;;;;;;;;;;4946205;28;20029;-77
2023/11/13 10:33:59;;;;;;;;;;;;;;;;;;4962676;28;19930;-80
2023/11/13 10:36:25;;;;;;;;;;;;;;;;;;4961678;28;19926;-80
2023/11/13 10:38:54;;;;;;;;;;;;;;;;;;4950528;28;20023;-78
2023/11/13 10:41:21;;;;;;;;;;;;;;;;;;4957135;28;19973;-78
2023/11/13 10:43:47;;;;;;;;;;;;;;;;;;4956674;28;20033;-77
2023/11/13 10:46:14;;;;;;;;;;;;;;;;;;4943032;28;20375;-79
2023/11/13 10:48:41;;;;;;;;;;;;;;;;;;4947755;28;19941;-78
2023/11/13 10:51:09;;;;;;;;;;;;;;;;;;4960191;28;19930;-77
2023/11/13 10:53:46;;;;;;;;;;;;;;;;;;4974195;28;20037;-81
2023/11/13 10:56:13;;;;;;;;;;;;;;;;;;4962423;28;19981;-80
2023/11/13 10:58:40;;;;;;;;;;;;;;;;;;4965413;28;19984;-80
2023/11/13 11:01:12;;;;;;;;;;;;;;;;;;4964311;28;19927;-78
2023/11/13 11:03:39;;;;;;;;;;;;;;;;;;4966708;28;20443;-80
2023/11/13 11:06:14;;;;;;;;;;;;;;;;;;4947601;28;19985;-78
2023/11/13 11:08:43;;;;;;;;;;;;;;;;;;4957292;28;20037;-78
2023/11/13 11:11:09;;;;;;;;;;;;;;;;;;4955592;28;19930;-77
2023/11/13 11:13:36;;;;;;;;;;;;;;;;;;4944528;28;20376;-80
2023/11/13 11:16:04;;;;;;;;;;;;;;;;;;4954271;28;20402;-79
2023/11/13 11:18:32;;;;;;;;;;;;;;;;;;4962256;28;19933;-79
2023/11/13 11:20:58;;;;;;;;;;;;;;;;;;4964147;28;20330;-77
2023/11/13 11:23:25;;;;;;;;;;;;;;;;;;4964294;28;20127;-75
2023/11/13 11:25:53;;;;;;;;;;;;;;;;;;4962460;28;20283;-78
2023/11/13 11:28:19;;;;;;;;;;;;;;;;;;4958433;28;19989;-78
2023/11/13 11:30:49;;;;;;;;;;;;;;;;;;4959078;28;19974;-79
2023/11/13 11:33:15;;;;;;;;;;;;;;;;;;4957665;28;19926;-79
2023/11/13 11:35:42;;;;;;;;;;;;;;;;;;4955530;28;19931;-78
2023/11/13 11:38:09;;;;;;;;;;;;;;;;;;4932223;28;19951;-77
2023/11/13 11:40:35;;;;;;;;;;;;;;;;;;4964136;28;19977;-78
2023/11/13 11:43:02;;;;;;;;;;;;;;;;;;4954502;28;19931;-80
2023/11/13 11:45:29;;;;;;;;;;;;;;;;;;4952075;28;19927;-80
2023/11/13 11:47:55;;;;;;;;;;;;;;;;;;4920620;29;20328;-78
2023/11/13 11:50:24;;;;;;;;;;;;;;;;;;4941159;28;19954;-79
2023/11/13 11:52:57;;;;;;;;;;;;;;;;;;4963225;28;19927;-79
2023/11/13 11:55:25;;;;;;;;;;;;;;;;;;4951965;28;19930;-79
2023/11/13 11:57:52;;;;;;;;;;;;;;;;;;4957905;28;19930;-77
2023/11/13 12:00:21;;;;;;;;;;;;;;;;;;4946452;28;19958;-80
2023/11/13 12:02:51;;;;;;;;;;;;;;;;;;4945067;28;20029;-76
2023/11/13 12:05:19;;;;;;;;;;;;;;;;;;4948452;28;19974;-78
2023/11/13 12:07:45;;;;;;;;;;;;;;;;;;4963123;28;19926;-79
2023/11/13 12:10:12;;;;;;;;;;;;;;;;;;4944776;28;20279;-78
2023/11/13 12:12:38;;;;;;;;;;;;;;;;;;4961454;28;19934;-77
2023/11/13 12:15:06;;;;;;;;;;;;;;;;;;4956395;28;20320;-79
2023/11/13 12:17:33;;;;;;;;;;;;;;;;;;4957725;28;19933;-78
2023/11/13 12:19:59;;;;;;;;;;;;;;;;;;4961261;28;19962;-75
2023/11/13 12:22:39;;;;;;;;;;;;;;;;;;4955044;28;19946;-78
2023/11/13 12:25:05;;;;;;;;;;;;;;;;;;4960942;28;19937;-78
2023/11/13 12:27:31;;;;;;;;;;;;;;;;;;4959279;28;19958;-80
2023/11/13 12:29:58;;;;;;;;;;;;;;;;;;4950237;28;19934;-80
2023/11/13 12:32:25;;;;;;;;;;;;;;;;;;4961350;28;20272;-81
2023/11/13 12:34:51;;;;;;;;;;;;;;;;;;4964666;28;20029;-80
2023/11/13 12:37:18;;;;;;;;;;;;;;;;;;4955738;28;19931;-80
2023/11/13 12:39:46;;;;;;;;;;;;;;;;;;4950737;28;19931;-80
2023/11/13 12:42:12;;;;;;;;;;;;;;;;;;4950289;28;20367;-81
2023/11/13 12:44:39;;;;;;;;;;;;;;;;;;4959743;28;19934;-77
2023/11/13 12:47:05;;;;;;;;;;;;;;;;;;4953109;28;20030;-78
2023/11/13 12:49:32;;;;;;;;;;;;;;;;;;4950746;28;19927;-78
2023/11/13 12:51:58;;;;;;;;;;;;;;;;;;4961214;28;20024;-80
2023/11/13 12:54:25;;;;;;;;;;;;;;;;;;4944075;28;19935;-78
2023/11/13 12:56:51;;;;;;;;;;;;;;;;;;4955713;28;20375;-78
2023/11/13 12:59:20;;;;;;;;;;;;;;;;;;4968775;28;20041;-78
2023/11/13 13:01:46;;;;;;;;;;;;;;;;;;4957198;28;19926;-80
2023/11/13 13:04:13;;;;;;;;;;;;;;;;;;4959359;28;19926;-81
2023/11/13 13:06:39;;;;;;;;;;;;;;;;;;4961931;28;19982;-78
2023/11/13 13:09:06;;;;;;;;;;;;;;;;;;4955545;28;20387;-78
2023/11/13 13:11:34;;;;;;;;;;;;;;;;;;4940843;28;19939;-78
2023/11/13 13:14:06;;;;;;;;;;;;;;;;;;4955552;28;20300;-77
2023/11/13 13:16:33;;;;;;;;;;;;;;;;;;4960408;28;20036;-78
2023/11/13 13:19:02;;;;;;;;;;;;;;;;;;4949085;28;19933;-78
2023/11/13 13:21:28;;;;;;;;;;;;;;;;;;4927490;28;19930;-78
2023/11/13 13:23:54;;;;;;;;;;;;;;;;;;4956066;28;19978;-78
2023/11/13 13:26:21;;;;;;;;;;;;;;;;;;4955764;28;19973;-79
2023/11/13 13:28:48;;;;;;;;;;;;;;;;;;4955390;28;19930;-80
2023/11/13 13:31:15;;;;;;;;;;;;;;;;;;4957661;28;19935;-79
2023/11/13 13:33:42;;;;;;;;;;;;;;;;;;4950003;28;20334;-79
2023/11/13 13:36:08;;;;;;;;;;;;;;;;;;4963088;28;20456;-79
2023/11/13 13:38:34;;;;;;;;;;;;;;;;;;4954725;28;19929;-80
2023/11/13 13:41:01;;;;;;;;;;;;;;;;;;4960043;28;19946;-79
2023/11/13 13:43:27;;;;;;;;;;;;;;;;;;4956002;28;19934;-79
2023/11/13 13:45:54;;;;;;;;;;;;;;;;;;4961824;28;19950;-81
2023/11/13 13:48:21;;;;;;;;;;;;;;;;;;4957069;28;20328;-80
2023/11/13 13:50:47;;;;;;;;;;;;;;;;;;4946194;28;19926;-81
2023/11/13 13:53:20;;;;;;;;;;;;;;;;;;4947424;28;19930;-81
2023/11/13 13:55:47;;;;;;;;;;;;;;;;;;4956688;28;19930;-80
2023/11/13 13:58:14;;;;;;;;;;;;;;;;;;4955525;28;19956;-81
2023/11/13 14:00:40;;;;;;;;;;;;;;;;;;4945578;28;19930;-80
2023/11/13 14:03:07;;;;;;;;;;;;;;;;;;4955084;28;20338;-81
2023/11/13 14:05:37;;;;;;;;;;;;;;;;;;4955385;28;20272;-80
2023/11/13 14:08:04;;;;;;;;;;;;;;;;;;4957638;28;19930;-79
2023/11/13 14:10:34;;;;;;;;;;;;;;;;;;4962319;28;19933;-79
2023/11/13 14:13:02;;;;;;;;;;;;;;;;;;4960930;28;20383;-79
2023/11/13 14:15:28;;;;;;;;;;;;;;;;;;4953682;28;19938;-80
2023/11/13 14:17:55;;;;;;;;;;;;;;;;;;4964939;28;19937;-80
2023/11/13 14:20:23;;;;;;;;;;;;;;;;;;4958963;28;20017;-79
2023/11/13 14:22:51;;;;;;;;;;;;;;;;;;4956509;28;19973;-79
2023/11/13 14:25:18;;;;;;;;;;;;;;;;;;4949022;28;19927;-77
2023/11/13 14:27:44;;;;;;;;;;;;;;;;;;4959429;28;20022;-81
2023/11/13 14:30:14;;;;;;;;;;;;;;;;;;4956304;28;19930;-80
2023/11/13 14:32:41;;;;;;;;;;;;;;;;;;4956845;28;19927;-81
2023/11/13 14:35:09;;;;;;;;;;;;;;;;;;4957279;28;19927;-80
2023/11/13 14:37:37;;;;;;;;;;;;;;;;;;4945673;28;19934;-77
2023/11/13 14:40:07;;;;;;;;;;;;;;;;;;4953275;28;20411;-81
2023/11/13 14:42:34;;;;;;;;;;;;;;;;;;4954863;28;19931;-80
2023/11/13 14:45:01;;;;;;;;;;;;;;;;;;4949640;28;19930;-81
2023/11/13 14:47:27;;;;;;;;;;;;;;;;;;4935294;28;19926;-79
2023/11/13 14:49:54;;;;;;;;;;;;;;;;;;4949271;28;19926;-79
2023/11/13 14:52:20;;;;;;;;;;;;;;;;;;4959561;28;20443;-78
2023/11/13 14:54:47;;;;;;;;;;;;;;;;;;4950703;28;20458;-79
2023/11/13 14:57:13;;;;;;;;;;;;;;;;;;4940211;28;19982;-80
2023/11/13 14:59:40;;;;;;;;;;;;;;;;;;4954550;28;20368;-80
2023/11/13 15:02:06;;;;;;;;;;;;;;;;;;4951990;28;19937;-76
2023/11/13 15:04:33;;;;;;;;;;;;;;;;;;4954740;28;20013;-78
2023/11/13 15:06:59;;;;;;;;;;;;;;;;;;4957134;28;19930;-77
2023/11/13 15:09:27;;;;;;;;;;;;;;;;;;4952881;28;20288;-80
2023/11/13 15:11:54;;;;;;;;;;;;;;;;;;4951641;28;20311;-78
2023/11/13 15:14:21;;;;;;;;;;;;;;;;;;4955894;28;20009;-77
2023/11/13 15:16:47;;;;;;;;;;;;;;;;;;4955276;28;19930;-78
2023/11/13 15:19:13;;;;;;;;;;;;;;;;;;4955555;28;20398;-78
2023/11/13 15:21:40;;;;;;;;;;;;;;;;;;4961423;28;19934;-78
2023/11/13 15:24:09;;;;;;;;;;;;;;;;;;4952091;28;19969;-79
2023/11/13 15:26:36;;;;;;;;;;;;;;;;;;4951824;28;19935;-79
2023/11/13 15:29:03;;;;;;;;;;;;;;;;;;4955266;28;20036;-80
2023/11/13 15:31:30;;;;;;;;;;;;;;;;;;4951162;28;19927;-78
2023/11/13 15:33:56;;;;;;;;;;;;;;;;;;4944534;28;19934;-79
2023/11/13 15:36:25;;;;;;;;;;;;;;;;;;4945134;28;20025;-79
2023/11/13 15:38:52;;;;;;;;;;;;;;;;;;4958812;28;19977;-79
2023/11/13 15:41:18;;;;;;;;;;;;;;;;;;4944562;28;19931;-79
2023/11/13 15:43:45;;;;;;;;;;;;;;;;;;4942294;28;19930;-81
2023/11/13 15:46:15;;;;;;;;;;;;;;;;;;4964794;28;19977;-78
2023/11/13 15:48:42;;;;;;;;;;;;;;;;;;4959729;28;20016;-80
2023/11/13 15:51:09;;;;;;;;;;;;;;;;;;4947743;28;19930;-78
2023/11/13 15:53:38;;;;;;;;;;;;;;;;;;4940993;28;19930;-79
2023/11/13 15:56:05;;;;;;;;;;;;;;;;;;4945599;28;20050;-78
2023/11/13 15:58:31;;;;;;;;;;;;;;;;;;4950940;28;20035;-79
2023/11/13 16:00:58;;;;;;;;;;;;;;;;;;4962238;28;20367;-79
2023/11/13 16:03:24;;;;;;;;;;;;;;;;;;4958976;28;19927;-78
2023/11/13 16:05:58;;;;;;;;;;;;;;;;;;4954245;28;19935;-79
2023/11/13 16:08:26;;;;;;;;;;;;;;;;;;4964802;28;20368;-78
2023/11/13 16:10:54;;;;;;;;;;;;;;;;;;4959099;28;19934;-79
2023/11/13 16:13:21;;;;;;;;;;;;;;;;;;4961708;28;20021;-77
2023/11/13 16:15:48;;;;;;;;;;;;;;;;;;4944340;28;19930;-78
2023/11/13 16:18:14;;;;;;;;;;;;;;;;;;4957525;28;20370;-77
2023/11/13 16:20:41;;;;;;;;;;;;;;;;;;4963140;28;19974;-79
2023/11/13 16:23:07;;;;;;;;;;;;;;;;;;4960739;28;19957;-77
2023/11/13 16:25:35;;;;;;;;;;;;;;;;;;4956579;28;20021;-80
2023/11/13 16:28:03;;;;;;;;;;;;;;;;;;4949049;28;19930;-78
2023/11/13 16:30:31;;;;;;;;;;;;;;;;;;4958409;28;20547;-79
2023/11/13 16:32:59;;;;;;;;;;;;;;;;;;4947025;28;19982;-78
2023/11/13 16:35:26;;;;;;;;;;;;;;;;;;4963158;28;19930;-79
2023/11/13 16:37:53;;;;;;;;;;;;;;;;;;4954058;28;19930;-80
2023/11/13 16:40:20;;;;;;;;;;;;;;;;;;4943685;28;19930;-77
2023/11/13 16:42:47;;;;;;;;;;;;;;;;;;4956187;28;20578;-79
2023/11/13 16:45:14;;;;;;;;;;;;;;;;;;4966336;28;19933;-77